Terminal Aerodrome Forecast
Issued by NWS

Home | Current Version | Previous Version | Text Only | Print | Product List | Glossary Off
Versions: 1 2 3 4 5 6 7 8 9 10 11 12 13 14 15 16 17 18 19 20

000
FTUS42 KMHX 280535
TAFOAJ
TAF
KOAJ 280535Z 2806/2906 17005KT P6SM SCT030 BKN040
     FM281700 17010G15KT P6SM VCSH BKN040
     FM290000 17005KT P6SM SCT050
      AMD LTD TO CLD VIS AND WIND=

USA.gov is the U.S. government's official web portal to all federal, state and local government web resources and services.